sensor_id;sensor_type;location;lat;lon;timestamp;temperature;humidity
79513;SHT31;68962;51.980;5.678;2023-06-10T00:00:59;23.1;45.0
79513;SHT31;68962;51.980;5.678;2023-06-10T00:03:27;23.0;45.2
79513;SHT31;68962;51.980;5.678;2023-06-10T00:05:56;23.0;45.2
79513;SHT31;68962;51.980;5.678;2023-06-10T00:08:24;22.9;45.4
79513;SHT31;68962;51.980;5.678;2023-06-10T00:10:53;22.9;45.7
79513;SHT31;68962;51.980;5.678;2023-06-10T00:13:22;22.9;45.7
79513;SHT31;68962;51.980;5.678;2023-06-10T00:15:53;22.9;45.7
79513;SHT31;68962;51.980;5.678;2023-06-10T00:18:22;22.9;45.5
79513;SHT31;68962;51.980;5.678;2023-06-10T00:20:53;22.8;45.5
79513;SHT31;68962;51.980;5.678;2023-06-10T00:23:21;22.7;45.7
79513;SHT31;68962;51.980;5.678;2023-06-10T00:25:51;22.6;45.9
79513;SHT31;68962;51.980;5.678;2023-06-10T00:28:19;22.5;45.9
79513;SHT31;68962;51.980;5.678;2023-06-10T00:30:48;22.5;46.1
79513;SHT31;68962;51.980;5.678;2023-06-10T00:33:16;22.4;46.0
79513;SHT31;68962;51.980;5.678;2023-06-10T00:35:45;22.3;46.1
79513;SHT31;68962;51.980;5.678;2023-06-10T00:38:14;22.2;46.2
79513;SHT31;68962;51.980;5.678;2023-06-10T00:40:43;22.2;46.2
79513;SHT31;68962;51.980;5.678;2023-06-10T00:43:11;22.1;46.3
79513;SHT31;68962;51.980;5.678;2023-06-10T00:45:39;22.1;46.4
79513;SHT31;68962;51.980;5.678;2023-06-10T00:48:08;22.0;46.1
79513;SHT31;68962;51.980;5.678;2023-06-10T00:50:37;22.0;46.2
79513;SHT31;68962;51.980;5.678;2023-06-10T00:53:08;21.9;45.9
79513;SHT31;68962;51.980;5.678;2023-06-10T00:55:37;21.9;45.9
79513;SHT31;68962;51.980;5.678;2023-06-10T00:58:06;21.8;45.9
79513;SHT31;68962;51.980;5.678;2023-06-10T01:00:37;21.8;45.9
79513;SHT31;68962;51.980;5.678;2023-06-10T01:03:05;21.8;45.8
79513;SHT31;68962;51.980;5.678;2023-06-10T01:05:35;21.7;45.7
79513;SHT31;68962;51.980;5.678;2023-06-10T01:08:09;21.7;45.8
79513;SHT31;68962;51.980;5.678;2023-06-10T01:10:45;21.7;45.8
79513;SHT31;68962;51.980;5.678;2023-06-10T01:13:16;21.6;45.9
79513;SHT31;68962;51.980;5.678;2023-06-10T01:15:50;21.6;46.0
79513;SHT31;68962;51.980;5.678;2023-06-10T01:18:20;21.5;45.8
79513;SHT31;68962;51.980;5.678;2023-06-10T01:20:48;21.5;45.9
79513;SHT31;68962;51.980;5.678;2023-06-10T01:23:18;21.4;45.9
79513;SHT31;68962;51.980;5.678;2023-06-10T01:25:52;21.4;45.9
79513;SHT31;68962;51.980;5.678;2023-06-10T01:28:30;21.4;45.9
79513;SHT31;68962;51.980;5.678;2023-06-10T01:31:09;21.4;45.9
79513;SHT31;68962;51.980;5.678;2023-06-10T01:33:43;21.4;45.9
79513;SHT31;68962;51.980;5.678;2023-06-10T01:36:16;21.3;45.8
79513;SHT31;68962;51.980;5.678;2023-06-10T01:38:47;21.3;45.8
79513;SHT31;68962;51.980;5.678;2023-06-10T01:41:17;21.3;45.7
79513;SHT31;68962;51.980;5.678;2023-06-10T01:43:46;21.2;45.8
79513;SHT31;68962;51.980;5.678;2023-06-10T01:46:15;21.2;45.8
79513;SHT31;68962;51.980;5.678;2023-06-10T01:48:46;21.2;45.9
79513;SHT31;68962;51.980;5.678;2023-06-10T01:51:15;21.1;45.9
79513;SHT31;68962;51.980;5.678;2023-06-10T01:53:44;21.1;46.0
79513;SHT31;68962;51.980;5.678;2023-06-10T01:56:12;21.1;46.0
79513;SHT31;68962;51.980;5.678;2023-06-10T01:58:44;21.1;46.0
79513;SHT31;68962;51.980;5.678;2023-06-10T02:01:13;21.1;46.0
79513;SHT31;68962;51.980;5.678;2023-06-10T02:03:42;21.1;46.0
79513;SHT31;68962;51.980;5.678;2023-06-10T02:06:10;21.1;45.9
79513;SHT31;68962;51.980;5.678;2023-06-10T02:08:38;21.1;45.8
79513;SHT31;68962;51.980;5.678;2023-06-10T02:11:07;21.1;45.8
79513;SHT31;68962;51.980;5.678;2023-06-10T02:13:35;21.0;45.9
79513;SHT31;68962;51.980;5.678;2023-06-10T02:16:04;21.0;45.9
79513;SHT31;68962;51.980;5.678;2023-06-10T02:18:34;21.0;46.0
79513;SHT31;68962;51.980;5.678;2023-06-10T02:21:02;21.0;46.0
79513;SHT31;68962;51.980;5.678;2023-06-10T02:23:31;21.0;46.1
79513;SHT31;68962;51.980;5.678;2023-06-10T02:25:59;20.9;46.3
79513;SHT31;68962;51.980;5.678;2023-06-10T02:28:30;20.9;46.5
79513;SHT31;68962;51.980;5.678;2023-06-10T02:30:58;20.9;46.7
79513;SHT31;68962;51.980;5.678;2023-06-10T02:33:28;20.9;46.9
79513;SHT31;68962;51.980;5.678;2023-06-10T02:35:57;20.9;46.9
79513;SHT31;68962;51.980;5.678;2023-06-10T02:38:25;21.0;46.8
79513;SHT31;68962;51.980;5.678;2023-06-10T02:40:54;21.0;46.8
79513;SHT31;68962;51.980;5.678;2023-06-10T02:43:22;21.0;46.8
79513;SHT31;68962;51.980;5.678;2023-06-10T02:45:51;21.0;46.9
79513;SHT31;68962;51.980;5.678;2023-06-10T02:48:19;21.0;47.0
79513;SHT31;68962;51.980;5.678;2023-06-10T02:50:48;21.0;47.1
79513;SHT31;68962;51.980;5.678;2023-06-10T02:53:16;20.9;47.2
79513;SHT31;68962;51.980;5.678;2023-06-10T02:55:45;20.9;47.3
79513;SHT31;68962;51.980;5.678;2023-06-10T02:58:13;20.8;47.6
79513;SHT31;68962;51.980;5.678;2023-06-10T03:00:42;20.7;47.9
79513;SHT31;68962;51.980;5.678;2023-06-10T03:03:11;20.6;48.1
79513;SHT31;68962;51.980;5.678;2023-06-10T03:05:40;20.6;48.4
79513;SHT31;68962;51.980;5.678;2023-06-10T03:08:09;20.5;48.7
79513;SHT31;68962;51.980;5.678;2023-06-10T03:10:37;20.4;49.0
79513;SHT31;68962;51.980;5.678;2023-06-10T03:13:06;20.4;49.3
79513;SHT31;68962;51.980;5.678;2023-06-10T03:15:36;20.4;49.5
79513;SHT31;68962;51.980;5.678;2023-06-10T03:18:07;20.3;49.6
79513;SHT31;68962;51.980;5.678;2023-06-10T03:20:36;20.3;49.7
79513;SHT31;68962;51.980;5.678;2023-06-10T03:23:06;20.2;49.9
79513;SHT31;68962;51.980;5.678;2023-06-10T03:25:34;20.2;50.0
79513;SHT31;68962;51.980;5.678;2023-06-10T03:28:03;20.2;50.1
79513;SHT31;68962;51.980;5.678;2023-06-10T03:30:32;20.2;50.2
79513;SHT31;68962;51.980;5.678;2023-06-10T03:33:00;20.1;50.3
79513;SHT31;68962;51.980;5.678;2023-06-10T03:35:29;20.1;50.4
79513;SHT31;68962;51.980;5.678;2023-06-10T03:37:58;20.1;50.5
79513;SHT31;68962;51.980;5.678;2023-06-10T03:40:27;20.1;50.6
79513;SHT31;68962;51.980;5.678;2023-06-10T03:42:57;20.1;50.8
79513;SHT31;68962;51.980;5.678;2023-06-10T03:45:25;20.1;50.9
79513;SHT31;68962;51.980;5.678;2023-06-10T03:47:54;20.0;51.0
79513;SHT31;68962;51.980;5.678;2023-06-10T03:50:23;20.0;51.1
79513;SHT31;68962;51.980;5.678;2023-06-10T03:52:52;20.0;51.2
79513;SHT31;68962;51.980;5.678;2023-06-10T03:55:21;20.0;51.2
79513;SHT31;68962;51.980;5.678;2023-06-10T03:57:50;20.0;51.3
79513;SHT31;68962;51.980;5.678;2023-06-10T04:00:19;20.0;51.4
79513;SHT31;68962;51.980;5.678;2023-06-10T04:02:48;20.1;51.4
79513;SHT31;68962;51.980;5.678;2023-06-10T04:05:19;20.1;51.3
79513;SHT31;68962;51.980;5.678;2023-06-10T04:07:52;20.1;51.3
79513;SHT31;68962;51.980;5.678;2023-06-10T04:10:20;20.2;51.2
79513;SHT31;68962;51.980;5.678;2023-06-10T04:12:49;20.3;51.1
79513;SHT31;68962;51.980;5.678;2023-06-10T04:15:19;20.3;51.0
79513;SHT31;68962;51.980;5.678;2023-06-10T04:17:48;20.4;50.9
79513;SHT31;68962;51.980;5.678;2023-06-10T04:20:17;20.4;50.8
79513;SHT31;68962;51.980;5.678;2023-06-10T04:22:45;20.5;50.6
79513;SHT31;68962;51.980;5.678;2023-06-10T04:25:14;20.6;50.5
79513;SHT31;68962;51.980;5.678;2023-06-10T04:27:44;20.7;50.3
79513;SHT31;68962;51.980;5.678;2023-06-10T04:30:15;20.9;49.9
79513;SHT31;68962;51.980;5.678;2023-06-10T04:32:44;21.2;49.4
79513;SHT31;68962;51.980;5.678;2023-06-10T04:35:16;21.4;48.7
79513;SHT31;68962;51.980;5.678;2023-06-10T04:37:44;21.5;48.3
79513;SHT31;68962;51.980;5.678;2023-06-10T04:40:13;21.6;48.1
79513;SHT31;68962;51.980;5.678;2023-06-10T04:42:44;21.7;47.8
79513;SHT31;68962;51.980;5.678;2023-06-10T04:45:12;21.9;47.6
79513;SHT31;68962;51.980;5.678;2023-06-10T04:47:42;22.1;47.2
79513;SHT31;68962;51.980;5.678;2023-06-10T04:50:12;22.3;46.7
79513;SHT31;68962;51.980;5.678;2023-06-10T04:52:42;22.5;46.0
79513;SHT31;68962;51.980;5.678;2023-06-10T04:55:11;22.7;45.7
79513;SHT31;68962;51.980;5.678;2023-06-10T04:57:42;22.7;45.6
79513;SHT31;68962;51.980;5.678;2023-06-10T05:00:13;22.8;45.4
79513;SHT31;68962;51.980;5.678;2023-06-10T05:02:42;22.8;45.4
79513;SHT31;68962;51.980;5.678;2023-06-10T05:05:11;22.9;45.4
79513;SHT31;68962;51.980;5.678;2023-06-10T05:07:40;23.0;45.2
79513;SHT31;68962;51.980;5.678;2023-06-10T05:10:09;23.1;45.0
79513;SHT31;68962;51.980;5.678;2023-06-10T05:15:37;24.1;42.8
79513;SHT31;68962;51.980;5.678;2023-06-10T05:18:06;24.1;43.0
79513;SHT31;68962;51.980;5.678;2023-06-10T05:20:35;24.2;42.8
79513;SHT31;68962;51.980;5.678;2023-06-10T05:23:04;24.3;42.6
79513;SHT31;68962;51.980;5.678;2023-06-10T05:25:35;24.3;42.6
79513;SHT31;68962;51.980;5.678;2023-06-10T05:28:05;24.5;42.8
79513;SHT31;68962;51.980;5.678;2023-06-10T05:30:37;24.7;42.3
79513;SHT31;68962;51.980;5.678;2023-06-10T05:33:05;24.9;41.9
79513;SHT31;68962;51.980;5.678;2023-06-10T05:35:36;25.1;41.4
79513;SHT31;68962;51.980;5.678;2023-06-10T05:38:05;25.3;41.1
79513;SHT31;68962;51.980;5.678;2023-06-10T05:40:33;25.4;40.9
79513;SHT31;68962;51.980;5.678;2023-06-10T05:43:02;25.4;40.6
79513;SHT31;68962;51.980;5.678;2023-06-10T05:45:30;25.5;40.4
79513;SHT31;68962;51.980;5.678;2023-06-10T05:47:59;25.7;40.5
79513;SHT31;68962;51.980;5.678;2023-06-10T05:50:27;25.9;40.1
79513;SHT31;68962;51.980;5.678;2023-06-10T05:52:56;26.0;39.8
79513;SHT31;68962;51.980;5.678;2023-06-10T05:55:24;26.1;39.8
79513;SHT31;68962;51.980;5.678;2023-06-10T05:58:00;26.2;39.9
79513;SHT31;68962;51.980;5.678;2023-06-10T06:00:29;26.4;39.4
79513;SHT31;68962;51.980;5.678;2023-06-10T06:02:57;26.6;39.3
79513;SHT31;68962;51.980;5.678;2023-06-10T06:05:26;26.7;39.1
79513;SHT31;68962;51.980;5.678;2023-06-10T06:08:00;26.9;38.3
79513;SHT31;68962;51.980;5.678;2023-06-10T06:10:28;27.1;37.9
79513;SHT31;68962;51.980;5.678;2023-06-10T06:12:57;27.3;37.7
79513;SHT31;68962;51.980;5.678;2023-06-10T06:15:25;27.4;37.7
79513;SHT31;68962;51.980;5.678;2023-06-10T06:17:54;27.6;37.3
79513;SHT31;68962;51.980;5.678;2023-06-10T06:20:23;28.0;36.7
79513;SHT31;68962;51.980;5.678;2023-06-10T06:22:52;28.3;36.0
79513;SHT31;68962;51.980;5.678;2023-06-10T06:27:48;29.5;33.8
79513;SHT31;68962;51.980;5.678;2023-06-10T06:30:17;29.6;33.6
79513;SHT31;68962;51.980;5.678;2023-06-10T06:32:45;29.6;34.0
79513;SHT31;68962;51.980;5.678;2023-06-10T06:35:14;29.7;34.1
79513;SHT31;68962;51.980;5.678;2023-06-10T06:40:18;29.8;33.7
79513;SHT31;68962;51.980;5.678;2023-06-10T06:42:46;29.9;33.4
79513;SHT31;68962;51.980;5.678;2023-06-10T06:45:15;30.0;33.2
79513;SHT31;68962;51.980;5.678;2023-06-10T06:47:43;30.1;33.4
79513;SHT31;68962;51.980;5.678;2023-06-10T06:50:14;30.2;32.8
79513;SHT31;68962;51.980;5.678;2023-06-10T06:52:43;30.3;32.4
79513;SHT31;68962;51.980;5.678;2023-06-10T06:55:11;30.4;32.6
79513;SHT31;68962;51.980;5.678;2023-06-10T06:57:40;30.6;32.5
79513;SHT31;68962;51.980;5.678;2023-06-10T07:00:09;30.8;32.3
79513;SHT31;68962;51.980;5.678;2023-06-10T07:02:38;30.9;32.0
79513;SHT31;68962;51.980;5.678;2023-06-10T07:05:07;31.0;32.2
79513;SHT31;68962;51.980;5.678;2023-06-10T07:07:35;31.2;32.2
79513;SHT31;68962;51.980;5.678;2023-06-10T07:10:04;31.5;31.8
79513;SHT31;68962;51.980;5.678;2023-06-10T07:12:35;31.7;30.9
79513;SHT31;68962;51.980;5.678;2023-06-10T07:15:04;31.9;30.9
79513;SHT31;68962;51.980;5.678;2023-06-10T07:17:32;32.0;30.8
79513;SHT31;68962;51.980;5.678;2023-06-10T07:20:01;32.3;30.4
79513;SHT31;68962;51.980;5.678;2023-06-10T07:22:30;32.5;29.8
79513;SHT31;68962;51.980;5.678;2023-06-10T07:24:59;32.7;30.1
79513;SHT31;68962;51.980;5.678;2023-06-10T07:27:30;32.8;29.9
79513;SHT31;68962;51.980;5.678;2023-06-10T07:29:58;33.1;29.3
79513;SHT31;68962;51.980;5.678;2023-06-10T07:32:28;33.3;28.6
79513;SHT31;68962;51.980;5.678;2023-06-10T07:34:57;33.5;28.1
79513;SHT31;68962;51.980;5.678;2023-06-10T07:37:26;33.5;28.0
79513;SHT31;68962;51.980;5.678;2023-06-10T07:39:55;33.5;27.4
79513;SHT31;68962;51.980;5.678;2023-06-10T07:42:24;33.6;27.6
79513;SHT31;68962;51.980;5.678;2023-06-10T07:44:53;33.6;27.9
79513;SHT31;68962;51.980;5.678;2023-06-10T07:47:25;33.6;27.8
79513;SHT31;68962;51.980;5.678;2023-06-10T07:49:54;33.7;27.6
79513;SHT31;68962;51.980;5.678;2023-06-10T07:52:23;33.9;28.0
79513;SHT31;68962;51.980;5.678;2023-06-10T07:54:55;34.2;27.0
79513;SHT31;68962;51.980;5.678;2023-06-10T07:57:24;34.5;27.1
79513;SHT31;68962;51.980;5.678;2023-06-10T07:59:56;34.7;27.0
79513;SHT31;68962;51.980;5.678;2023-06-10T08:02:26;34.9;26.9
79513;SHT31;68962;51.980;5.678;2023-06-10T08:04:57;35.1;25.8
79513;SHT31;68962;51.980;5.678;2023-06-10T08:07:25;35.2;25.9
79513;SHT31;68962;51.980;5.678;2023-06-10T08:09:54;35.3;25.9
79513;SHT31;68962;51.980;5.678;2023-06-10T08:12:22;35.3;25.0
79513;SHT31;68962;51.980;5.678;2023-06-10T08:14:51;35.3;24.9
79513;SHT31;68962;51.980;5.678;2023-06-10T08:17:21;35.3;25.0
79513;SHT31;68962;51.980;5.678;2023-06-10T08:19:50;35.4;24.6
79513;SHT31;68962;51.980;5.678;2023-06-10T08:22:18;35.3;24.8
79513;SHT31;68962;51.980;5.678;2023-06-10T08:24:47;35.3;25.1
79513;SHT31;68962;51.980;5.678;2023-06-10T08:27:16;35.4;25.4
79513;SHT31;68962;51.980;5.678;2023-06-10T08:29:44;35.4;24.8
79513;SHT31;68962;51.980;5.678;2023-06-10T08:32:13;35.4;24.7
79513;SHT31;68962;51.980;5.678;2023-06-10T08:34:42;35.5;25.3
79513;SHT31;68962;51.980;5.678;2023-06-10T08:37:12;35.5;25.0
79513;SHT31;68962;51.980;5.678;2023-06-10T08:39:41;35.6;24.6
79513;SHT31;68962;51.980;5.678;2023-06-10T08:42:21;35.7;24.8
79513;SHT31;68962;51.980;5.678;2023-06-10T08:45:01;36.0;25.6
79513;SHT31;68962;51.980;5.678;2023-06-10T08:47:40;36.3;25.4
79513;SHT31;68962;51.980;5.678;2023-06-10T08:50:20;36.6;25.1
79513;SHT31;68962;51.980;5.678;2023-06-10T08:52:53;36.8;24.7
79513;SHT31;68962;51.980;5.678;2023-06-10T08:55:37;37.0;24.5
79513;SHT31;68962;51.980;5.678;2023-06-10T08:58:08;37.1;24.6
79513;SHT31;68962;51.980;5.678;2023-06-10T09:00:44;37.2;24.3
79513;SHT31;68962;51.980;5.678;2023-06-10T09:03:26;37.3;23.9
79513;SHT31;68962;51.980;5.678;2023-06-10T09:06:06;37.3;24.1
79513;SHT31;68962;51.980;5.678;2023-06-10T09:08:36;37.4;23.9
79513;SHT31;68962;51.980;5.678;2023-06-10T09:11:06;37.3;24.1
79513;SHT31;68962;51.980;5.678;2023-06-10T09:13:35;37.2;24.3
79513;SHT31;68962;51.980;5.678;2023-06-10T09:16:04;37.2;24.3
79513;SHT31;68962;51.980;5.678;2023-06-10T09:18:32;37.1;24.5
79513;SHT31;68962;51.980;5.678;2023-06-10T09:21:01;37.1;24.3
79513;SHT31;68962;51.980;5.678;2023-06-10T09:23:30;37.1;23.8
79513;SHT31;68962;51.980;5.678;2023-06-10T09:25:59;37.0;24.0
79513;SHT31;68962;51.980;5.678;2023-06-10T09:28:27;37.0;23.7
79513;SHT31;68962;51.980;5.678;2023-06-10T09:31:06;37.0;24.1
79513;SHT31;68962;51.980;5.678;2023-06-10T09:33:39;37.0;24.6
79513;SHT31;68962;51.980;5.678;2023-06-10T09:36:08;37.0;24.3
79513;SHT31;68962;51.980;5.678;2023-06-10T09:38:37;37.0;24.6
79513;SHT31;68962;51.980;5.678;2023-06-10T09:41:06;37.0;24.4
79513;SHT31;68962;51.980;5.678;2023-06-10T09:43:42;37.0;24.3
79513;SHT31;68962;51.980;5.678;2023-06-10T09:46:19;37.0;24.6
79513;SHT31;68962;51.980;5.678;2023-06-10T09:48:48;37.1;24.0
79513;SHT31;68962;51.980;5.678;2023-06-10T09:51:17;37.1;23.8
79513;SHT31;68962;51.980;5.678;2023-06-10T09:53:51;37.1;24.4
79513;SHT31;68962;51.980;5.678;2023-06-10T09:56:20;37.2;23.9
79513;SHT31;68962;51.980;5.678;2023-06-10T09:58:53;37.2;23.5
79513;SHT31;68962;51.980;5.678;2023-06-10T10:01:22;37.3;23.3
79513;SHT31;68962;51.980;5.678;2023-06-10T10:03:51;37.3;23.4
79513;SHT31;68962;51.980;5.678;2023-06-10T10:06:20;37.4;23.6
79513;SHT31;68962;51.980;5.678;2023-06-10T10:08:51;37.4;24.1
79513;SHT31;68962;51.980;5.678;2023-06-10T10:11:21;37.5;24.0
79513;SHT31;68962;51.980;5.678;2023-06-10T10:13:51;37.5;24.0
79513;SHT31;68962;51.980;5.678;2023-06-10T10:16:27;37.6;23.6
79513;SHT31;68962;51.980;5.678;2023-06-10T10:19:04;37.7;22.5
79513;SHT31;68962;51.980;5.678;2023-06-10T10:21:39;37.7;21.9
79513;SHT31;68962;51.980;5.678;2023-06-10T10:24:18;37.6;22.4
79513;SHT31;68962;51.980;5.678;2023-06-10T10:26:50;37.6;22.3
79513;SHT31;68962;51.980;5.678;2023-06-10T10:29:24;37.6;22.9
79513;SHT31;68962;51.980;5.678;2023-06-10T10:31:59;37.5;22.3
79513;SHT31;68962;51.980;5.678;2023-06-10T10:34:37;37.5;22.4
79513;SHT31;68962;51.980;5.678;2023-06-10T10:37:09;37.4;21.9
79513;SHT31;68962;51.980;5.678;2023-06-10T10:39:39;37.3;22.1
79513;SHT31;68962;51.980;5.678;2023-06-10T10:42:13;37.2;21.7
79513;SHT31;68962;51.980;5.678;2023-06-10T10:44:42;37.1;22.0
79513;SHT31;68962;51.980;5.678;2023-06-10T10:47:13;37.0;21.6
79513;SHT31;68962;51.980;5.678;2023-06-10T10:49:45;37.0;21.8
79513;SHT31;68962;51.980;5.678;2023-06-10T10:52:16;36.9;22.6
79513;SHT31;68962;51.980;5.678;2023-06-10T10:54:46;36.8;22.2
79513;SHT31;68962;51.980;5.678;2023-06-10T10:57:17;36.8;22.0
79513;SHT31;68962;51.980;5.678;2023-06-10T10:59:51;36.7;21.7
79513;SHT31;68962;51.980;5.678;2023-06-10T11:02:34;36.6;21.1
79513;SHT31;68962;51.980;5.678;2023-06-10T11:05:05;36.6;21.1
79513;SHT31;68962;51.980;5.678;2023-06-10T11:07:35;36.5;20.5
79513;SHT31;68962;51.980;5.678;2023-06-10T11:10:07;36.5;21.2
79513;SHT31;68962;51.980;5.678;2023-06-10T11:12:52;36.4;20.6
79513;SHT31;68962;51.980;5.678;2023-06-10T11:15:29;36.4;20.5
79513;SHT31;68962;51.980;5.678;2023-06-10T11:18:21;36.4;20.7
79513;SHT31;68962;51.980;5.678;2023-06-10T11:20:55;36.3;21.1
79513;SHT31;68962;51.980;5.678;2023-06-10T11:23:39;36.2;20.8
79513;SHT31;68962;51.980;5.678;2023-06-10T11:26:20;36.1;21.1
79513;SHT31;68962;51.980;5.678;2023-06-10T11:29:07;36.0;20.6
79513;SHT31;68962;51.980;5.678;2023-06-10T11:31:45;35.9;20.5
79513;SHT31;68962;51.980;5.678;2023-06-10T11:34:26;35.8;21.2
79513;SHT31;68962;51.980;5.678;2023-06-10T11:37:09;35.7;20.0
79513;SHT31;68962;51.980;5.678;2023-06-10T11:39:45;35.7;21.0
79513;SHT31;68962;51.980;5.678;2023-06-10T11:42:16;35.5;20.9
79513;SHT31;68962;51.980;5.678;2023-06-10T11:44:49;35.4;20.7
79513;SHT31;68962;51.980;5.678;2023-06-10T11:47:19;35.1;20.6
79513;SHT31;68962;51.980;5.678;2023-06-10T11:49:57;34.8;20.9
79513;SHT31;68962;51.980;5.678;2023-06-10T11:52:28;34.6;21.6
79513;SHT31;68962;51.980;5.678;2023-06-10T11:55:04;34.3;22.7
79513;SHT31;68962;51.980;5.678;2023-06-10T11:57:35;34.2;22.8
79513;SHT31;68962;51.980;5.678;2023-06-10T12:00:06;33.9;21.8
79513;SHT31;68962;51.980;5.678;2023-06-10T12:02:35;33.7;22.9
79513;SHT31;68962;51.980;5.678;2023-06-10T12:05:12;33.4;23.6
79513;SHT31;68962;51.980;5.678;2023-06-10T12:07:41;33.1;23.8
79513;SHT31;68962;51.980;5.678;2023-06-10T12:10:09;32.9;24.5
79513;SHT31;68962;51.980;5.678;2023-06-10T12:12:38;32.7;23.8
79513;SHT31;68962;51.980;5.678;2023-06-10T12:15:08;32.5;24.5
79513;SHT31;68962;51.980;5.678;2023-06-10T12:17:38;32.3;24.6
79513;SHT31;68962;51.980;5.678;2023-06-10T12:20:23;32.2;24.1
79513;SHT31;68962;51.980;5.678;2023-06-10T12:22:44;32.1;24.3
79513;SHT31;68962;51.980;5.678;2023-06-10T12:25:12;31.9;24.5
79513;SHT31;68962;51.980;5.678;2023-06-10T12:27:52;31.9;25.3
79513;SHT31;68962;51.980;5.678;2023-06-10T12:30:22;31.8;25.5
79513;SHT31;68962;51.980;5.678;2023-06-10T12:32:52;31.7;25.2
79513;SHT31;68962;51.980;5.678;2023-06-10T12:35:23;31.6;25.0
79513;SHT31;68962;51.980;5.678;2023-06-10T12:38:00;31.6;25.4
79513;SHT31;68962;51.980;5.678;2023-06-10T12:40:31;31.5;25.9
79513;SHT31;68962;51.980;5.678;2023-06-10T12:43:01;31.4;25.6
79513;SHT31;68962;51.980;5.678;2023-06-10T12:45:31;31.3;24.8
79513;SHT31;68962;51.980;5.678;2023-06-10T12:48:07;31.3;25.6
79513;SHT31;68962;51.980;5.678;2023-06-10T12:50:37;31.2;26.0
79513;SHT31;68962;51.980;5.678;2023-06-10T12:53:06;31.2;26.1
79513;SHT31;68962;51.980;5.678;2023-06-10T12:55:39;31.2;26.4
79513;SHT31;68962;51.980;5.678;2023-06-10T12:58:08;31.3;25.9
79513;SHT31;68962;51.980;5.678;2023-06-10T13:00:42;31.4;25.5
79513;SHT31;68962;51.980;5.678;2023-06-10T13:03:12;31.5;26.2
79513;SHT31;68962;51.980;5.678;2023-06-10T13:05:41;31.5;25.3
79513;SHT31;68962;51.980;5.678;2023-06-10T13:08:10;31.5;25.5
79513;SHT31;68962;51.980;5.678;2023-06-10T13:10:39;31.5;25.9
79513;SHT31;68962;51.980;5.678;2023-06-10T13:13:08;31.5;25.5
79513;SHT31;68962;51.980;5.678;2023-06-10T13:15:37;31.5;25.1
79513;SHT31;68962;51.980;5.678;2023-06-10T13:18:05;31.4;25.3
79513;SHT31;68962;51.980;5.678;2023-06-10T13:20:34;31.3;26.1
79513;SHT31;68962;51.980;5.678;2023-06-10T13:23:02;31.3;24.8
79513;SHT31;68962;51.980;5.678;2023-06-10T13:25:31;31.2;25.5
79513;SHT31;68962;51.980;5.678;2023-06-10T13:28:00;31.1;26.0
79513;SHT31;68962;51.980;5.678;2023-06-10T13:30:29;31.1;25.9
79513;SHT31;68962;51.980;5.678;2023-06-10T13:32:57;31.0;26.2
79513;SHT31;68962;51.980;5.678;2023-06-10T13:35:26;31.0;25.1
79513;SHT31;68962;51.980;5.678;2023-06-10T13:37:54;31.0;25.6
79513;SHT31;68962;51.980;5.678;2023-06-10T13:40:23;31.0;26.3
79513;SHT31;68962;51.980;5.678;2023-06-10T13:42:51;31.0;26.1
79513;SHT31;68962;51.980;5.678;2023-06-10T13:45:22;30.9;26.3
79513;SHT31;68962;51.980;5.678;2023-06-10T13:47:51;30.9;26.1
79513;SHT31;68962;51.980;5.678;2023-06-10T13:50:19;30.9;25.9
79513;SHT31;68962;51.980;5.678;2023-06-10T13:52:48;31.0;26.5
79513;SHT31;68962;51.980;5.678;2023-06-10T13:55:17;31.0;25.9
79513;SHT31;68962;51.980;5.678;2023-06-10T13:57:46;31.0;24.1
79513;SHT31;68962;51.980;5.678;2023-06-10T14:00:16;31.1;24.3
79513;SHT31;68962;51.980;5.678;2023-06-10T14:02:45;31.1;24.6
79513;SHT31;68962;51.980;5.678;2023-06-10T14:05:15;31.1;25.1
79513;SHT31;68962;51.980;5.678;2023-06-10T14:07:43;31.1;26.3
79513;SHT31;68962;51.980;5.678;2023-06-10T14:10:14;31.1;25.8
79513;SHT31;68962;51.980;5.678;2023-06-10T14:12:42;31.1;24.9
79513;SHT31;68962;51.980;5.678;2023-06-10T14:15:11;31.1;24.1
79513;SHT31;68962;51.980;5.678;2023-06-10T14:17:41;31.1;23.3
79513;SHT31;68962;51.980;5.678;2023-06-10T14:20:15;31.1;24.7
79513;SHT31;68962;51.980;5.678;2023-06-10T14:22:46;31.1;24.8
79513;SHT31;68962;51.980;5.678;2023-06-10T14:25:15;31.1;25.2
79513;SHT31;68962;51.980;5.678;2023-06-10T14:27:44;31.1;24.8
79513;SHT31;68962;51.980;5.678;2023-06-10T14:30:13;31.0;25.0
79513;SHT31;68962;51.980;5.678;2023-06-10T14:32:43;31.0;25.2
79513;SHT31;68962;51.980;5.678;2023-06-10T14:35:13;31.0;23.9
79513;SHT31;68962;51.980;5.678;2023-06-10T14:37:43;31.0;23.6
79513;SHT31;68962;51.980;5.678;2023-06-10T14:40:12;31.0;24.0
79513;SHT31;68962;51.980;5.678;2023-06-10T14:42:41;31.0;24.4
79513;SHT31;68962;51.980;5.678;2023-06-10T14:45:10;31.0;25.6
79513;SHT31;68962;51.980;5.678;2023-06-10T14:47:38;31.0;26.3
79513;SHT31;68962;51.980;5.678;2023-06-10T14:50:08;31.0;24.9
79513;SHT31;68962;51.980;5.678;2023-06-10T14:52:38;31.0;25.0
79513;SHT31;68962;51.980;5.678;2023-06-10T14:55:09;31.0;25.0
79513;SHT31;68962;51.980;5.678;2023-06-10T14:57:38;30.9;25.5
79513;SHT31;68962;51.980;5.678;2023-06-10T15:00:07;30.9;25.9
79513;SHT31;68962;51.980;5.678;2023-06-10T15:02:36;30.9;25.9
79513;SHT31;68962;51.980;5.678;2023-06-10T15:05:05;30.9;26.0
79513;SHT31;68962;51.980;5.678;2023-06-10T15:07:34;31.0;26.2
79513;SHT31;68962;51.980;5.678;2023-06-10T15:10:03;31.0;26.2
79513;SHT31;68962;51.980;5.678;2023-06-10T15:12:32;31.0;25.7
79513;SHT31;68962;51.980;5.678;2023-06-10T15:15:00;31.0;26.0
79513;SHT31;68962;51.980;5.678;2023-06-10T15:17:29;31.0;25.0
79513;SHT31;68962;51.980;5.678;2023-06-10T15:19:58;31.0;25.7
79513;SHT31;68962;51.980;5.678;2023-06-10T15:22:26;31.0;25.5
79513;SHT31;68962;51.980;5.678;2023-06-10T15:24:55;31.0;25.1
79513;SHT31;68962;51.980;5.678;2023-06-10T15:27:24;31.0;25.6
79513;SHT31;68962;51.980;5.678;2023-06-10T15:29:52;31.0;25.9
79513;SHT31;68962;51.980;5.678;2023-06-10T15:32:21;30.9;26.1
79513;SHT31;68962;51.980;5.678;2023-06-10T15:34:49;30.9;26.3
79513;SHT31;68962;51.980;5.678;2023-06-10T15:37:19;30.9;26.4
79513;SHT31;68962;51.980;5.678;2023-06-10T15:39:49;30.9;26.7
79513;SHT31;68962;51.980;5.678;2023-06-10T15:42:17;30.9;26.9
79513;SHT31;68962;51.980;5.678;2023-06-10T15:44:46;30.9;26.1
79513;SHT31;68962;51.980;5.678;2023-06-10T15:47:14;30.9;26.9
79513;SHT31;68962;51.980;5.678;2023-06-10T15:49:42;30.9;27.4
79513;SHT31;68962;51.980;5.678;2023-06-10T15:52:13;30.9;26.1
79513;SHT31;68962;51.980;5.678;2023-06-10T15:54:41;31.0;26.5
79513;SHT31;68962;51.980;5.678;2023-06-10T15:57:10;31.0;26.2
79513;SHT31;68962;51.980;5.678;2023-06-10T15:59:40;31.1;26.6
79513;SHT31;68962;51.980;5.678;2023-06-10T16:02:09;31.1;26.5
79513;SHT31;68962;51.980;5.678;2023-06-10T16:04:38;31.0;26.3
79513;SHT31;68962;51.980;5.678;2023-06-10T16:07:07;31.0;26.2
79513;SHT31;68962;51.980;5.678;2023-06-10T16:09:35;31.0;26.3
79513;SHT31;68962;51.980;5.678;2023-06-10T16:12:04;30.9;26.7
79513;SHT31;68962;51.980;5.678;2023-06-10T16:14:33;30.9;26.5
79513;SHT31;68962;51.980;5.678;2023-06-10T16:17:02;30.8;26.5
79513;SHT31;68962;51.980;5.678;2023-06-10T16:19:32;30.8;26.8
79513;SHT31;68962;51.980;5.678;2023-06-10T16:22:01;30.8;27.1
79513;SHT31;68962;51.980;5.678;2023-06-10T16:24:29;30.7;27.1
79513;SHT31;68962;51.980;5.678;2023-06-10T16:26:58;30.7;27.3
79513;SHT31;68962;51.980;5.678;2023-06-10T16:29:27;30.7;27.2